createdAt,value
2023-04-16T00:00:48.601Z,100415.34
2023-04-16T00:03:32.171Z,100416.04
2023-04-16T00:06:00.679Z,100416.98
2023-04-16T00:08:28.597Z,100417.29
2023-04-16T00:10:56.792Z,100417.77
2023-04-16T00:13:26.220Z,100415.50
2023-04-16T00:15:54.079Z,100418.65
2023-04-16T00:18:22.134Z,100411.62
2023-04-16T00:20:50.939Z,100410.20
2023-04-16T00:23:18.936Z,100414.00
2023-04-16T00:25:47.065Z,100412.83
2023-04-16T00:28:15.072Z,100410.54
2023-04-16T00:30:43.023Z,100417.00
2023-04-16T00:33:11.289Z,100416.15
2023-04-16T00:35:39.180Z,100419.34
2023-04-16T00:38:07.066Z,100418.13
2023-04-16T00:40:35.109Z,100420.25
2023-04-16T00:43:03.090Z,100422.25
2023-04-16T00:45:31.360Z,100424.93
2023-04-16T00:48:01.017Z,100424.44
2023-04-16T00:50:29.841Z,100424.31
2023-04-16T00:52:58.237Z,100424.98
2023-04-16T00:55:27.513Z,100427.98
2023-04-16T00:57:55.715Z,100432.06
2023-04-16T01:00:23.868Z,100432.64
2023-04-16T01:02:52.760Z,100432.80
2023-04-16T01:05:21.526Z,100432.63
2023-04-16T01:07:50.952Z,100431.23
2023-04-16T01:10:19.116Z,100430.88
2023-04-16T01:12:47.221Z,100416.78
2023-04-16T01:15:15.276Z,100436.12
2023-04-16T01:17:46.529Z,100434.96
2023-04-16T01:20:14.968Z,100437.85
2023-04-16T01:22:42.915Z,100436.98
2023-04-16T01:25:14.985Z,100437.33
2023-04-16T01:27:43.252Z,100437.71
2023-04-16T01:30:11.396Z,100435.98
2023-04-16T01:32:48.358Z,100436.02
2023-04-16T01:35:18.226Z,100434.64
2023-04-16T01:37:46.401Z,100433.05
2023-04-16T01:40:14.715Z,100433.41
2023-04-16T01:42:44.018Z,100435.21
2023-04-16T01:45:12.139Z,100433.90
2023-04-16T01:47:41.068Z,100436.61
2023-04-16T01:50:09.667Z,100431.55
2023-04-16T01:52:37.618Z,100435.03
2023-04-16T01:55:06.332Z,100434.80
2023-04-16T01:57:34.373Z,100435.48
2023-04-16T02:00:03.276Z,100441.85
2023-04-16T02:02:33.022Z,100444.59
2023-04-16T02:05:01.351Z,100443.75
2023-04-16T02:07:31.815Z,100452.41
2023-04-16T02:09:59.970Z,100452.45
2023-04-16T02:12:29.993Z,100454.27
2023-04-16T02:14:58.286Z,100453.98
2023-04-16T02:17:28.748Z,100458.10
2023-04-16T02:20:17.796Z,100464.11
2023-04-16T02:22:54.235Z,100463.39
2023-04-16T02:25:24.334Z,100463.09
2023-04-16T02:27:53.536Z,100464.58
2023-04-16T02:30:30.987Z,100469.36
2023-04-16T02:32:59.203Z,100475.98
2023-04-16T02:35:28.150Z,100475.77
2023-04-16T02:37:56.574Z,100477.77
2023-04-16T02:40:24.562Z,100478.91
2023-04-16T02:42:53.726Z,100464.98
2023-04-16T02:45:22.247Z,100483.92
2023-04-16T02:47:51.096Z,100485.77
2023-04-16T02:50:19.028Z,100488.33
2023-04-16T02:52:47.323Z,100490.86
2023-04-16T02:55:15.165Z,100491.16
2023-04-16T02:57:43.131Z,100489.55
2023-04-16T03:00:11.870Z,100494.95
2023-04-16T03:02:40.236Z,100495.70
2023-04-16T03:05:09.025Z,100493.34
2023-04-16T03:07:39.418Z,100500.48
2023-04-16T03:10:07.958Z,100499.77
2023-04-16T03:12:36.418Z,100499.96
2023-04-16T03:15:08.683Z,100501.39
2023-04-16T03:17:36.663Z,100501.45
2023-04-16T03:20:05.340Z,100499.81
2023-04-16T03:22:33.703Z,100498.64
2023-04-16T03:25:01.677Z,100501.81
2023-04-16T03:27:29.555Z,100500.10
2023-04-16T03:29:57.756Z,100501.58
2023-04-16T03:32:26.769Z,100502.48
2023-04-16T03:34:54.795Z,100505.84
2023-04-16T03:37:23.270Z,100504.72
2023-04-16T03:39:51.632Z,100509.95
2023-04-16T03:42:19.525Z,100506.11
2023-04-16T03:44:47.564Z,100512.19
2023-04-16T03:47:16.001Z,100511.73
2023-04-16T03:49:44.668Z,100516.17
2023-04-16T03:52:13.589Z,100520.86
2023-04-16T03:54:41.751Z,100521.05
2023-04-16T03:57:30.656Z,100523.46
2023-04-16T04:00:04.606Z,100527.19
2023-04-16T04:02:43.023Z,100531.44
2023-04-16T04:05:16.720Z,100528.46
2023-04-16T04:07:45.385Z,100529.66
2023-04-16T04:10:15.936Z,100530.89
2023-04-16T04:12:46.536Z,100534.25
2023-04-16T04:15:14.849Z,100536.11
2023-04-16T04:17:43.667Z,100536.56
2023-04-16T04:20:12.412Z,100533.02
2023-04-16T04:22:42.339Z,100533.32
2023-04-16T04:25:10.953Z,100538.41
2023-04-16T04:27:39.055Z,100543.30
2023-04-16T04:30:07.870Z,100538.80
2023-04-16T04:32:36.046Z,100543.06
2023-04-16T04:35:06.140Z,100543.02
2023-04-16T04:37:34.296Z,100544.72
2023-04-16T04:40:06.212Z,100548.55
2023-04-16T04:42:36.849Z,100554.44
2023-04-16T04:45:05.609Z,100553.98
2023-04-16T04:47:34.765Z,100550.59
2023-04-16T04:50:02.741Z,100552.82
2023-04-16T04:52:31.238Z,100558.55
2023-04-16T04:54:59.273Z,100563.02
2023-04-16T04:57:27.386Z,100563.52
2023-04-16T04:59:55.958Z,100563.89
2023-04-16T05:02:24.286Z,100566.53
2023-04-16T05:04:52.458Z,100568.45
2023-04-16T05:07:21.244Z,100570.61
2023-04-16T05:09:49.234Z,100573.95
2023-04-16T05:12:17.222Z,100571.75
2023-04-16T05:14:45.151Z,100574.48
2023-04-16T05:17:13.206Z,100573.04
2023-04-16T05:19:41.346Z,100570.64
2023-04-16T05:22:09.496Z,100572.27
2023-04-16T05:24:37.449Z,100576.66
2023-04-16T05:27:06.589Z,100574.05
2023-04-16T05:29:34.552Z,100578.44
2023-04-16T05:32:02.620Z,100580.61
2023-04-16T05:34:30.944Z,100582.54
2023-04-16T05:36:59.126Z,100584.30
2023-04-16T05:39:27.265Z,100583.63
2023-04-16T05:41:55.426Z,100584.96
2023-04-16T05:44:23.453Z,100586.41
2023-04-16T05:46:51.656Z,100589.02
2023-04-16T05:49:20.261Z,100587.01
2023-04-16T05:51:50.737Z,100590.70
2023-04-16T05:54:19.011Z,100595.18
2023-04-16T05:56:46.989Z,100598.42
2023-04-16T05:59:14.991Z,100603.61
2023-04-16T06:01:43.356Z,100598.91
2023-04-16T06:04:11.609Z,100603.73
2023-04-16T06:06:40.480Z,100605.98
2023-04-16T06:09:08.965Z,100605.18
2023-04-16T06:11:37.221Z,100603.95
2023-04-16T06:14:05.112Z,100604.95
2023-04-16T06:16:33.524Z,100609.79
2023-04-16T06:19:01.784Z,100614.45
2023-04-16T06:21:29.674Z,100617.16
2023-04-16T06:23:57.822Z,100622.51
2023-04-16T06:26:25.860Z,100627.13
2023-04-16T06:28:53.807Z,100630.27
2023-04-16T06:31:22.029Z,100634.14
2023-04-16T06:33:50.242Z,100634.61
2023-04-16T06:36:18.229Z,100639.80
2023-04-16T06:38:46.637Z,100635.02
2023-04-16T06:41:15.432Z,100633.88
2023-04-16T06:43:44.185Z,100631.68
2023-04-16T06:46:12.466Z,100634.96
2023-04-16T06:48:40.670Z,100634.75
2023-04-16T06:51:08.732Z,100635.73
2023-04-16T06:53:37.694Z,100638.86
2023-04-16T06:56:06.307Z,100641.66
2023-04-16T06:58:34.279Z,100646.42
2023-04-16T07:01:02.914Z,100648.20
2023-04-16T07:03:31.586Z,100649.46
2023-04-16T07:05:59.613Z,100647.45
2023-04-16T07:08:27.561Z,100646.87
2023-04-16T07:10:55.664Z,100653.67
2023-04-16T07:13:23.562Z,100656.98
2023-04-16T07:15:51.598Z,100658.33
2023-04-16T07:18:20.805Z,100661.60
2023-04-16T07:20:48.985Z,100665.22
2023-04-16T07:23:17.073Z,100665.22
2023-04-16T07:25:46.028Z,100670.64
2023-04-16T07:28:16.727Z,100671.42
2023-04-16T07:30:47.035Z,100675.94
2023-04-16T07:33:15.101Z,100673.96
2023-04-16T07:35:45.162Z,100673.55
2023-04-16T07:38:13.342Z,100678.21
2023-04-16T07:40:41.405Z,100677.58
2023-04-16T07:43:09.723Z,100672.73
2023-04-16T07:45:37.787Z,100677.33
2023-04-16T07:48:06.602Z,100679.22
2023-04-16T07:50:34.548Z,100682.13
2023-04-16T07:53:02.643Z,100684.40
2023-04-16T07:55:33.050Z,100687.80
2023-04-16T07:58:01.239Z,100694.75
2023-04-16T08:00:30.043Z,100702.02
2023-04-16T08:02:58.474Z,100707.05
2023-04-16T08:05:27.053Z,100708.84
2023-04-16T08:07:55.223Z,100711.59
2023-04-16T08:10:23.369Z,100707.50
2023-04-16T08:12:51.713Z,100708.11
2023-04-16T08:15:20.064Z,100709.81
2023-04-16T08:17:48.239Z,100707.64
2023-04-16T08:20:19.101Z,100710.60
2023-04-16T08:22:48.559Z,100711.39
2023-04-16T08:25:16.833Z,100713.77
2023-04-16T08:27:44.758Z,100715.95
2023-04-16T08:30:13.019Z,100718.19
2023-04-16T08:32:41.874Z,100719.46
2023-04-16T08:35:10.452Z,100720.89
2023-04-16T08:37:39.077Z,100725.40
2023-04-16T08:40:07.957Z,100723.54
2023-04-16T08:42:58.675Z,100726.09
2023-04-16T08:45:27.525Z,100726.14
2023-04-16T08:47:55.966Z,100728.22
2023-04-16T08:50:28.267Z,100728.80
2023-04-16T08:53:03.683Z,100732.30
2023-04-16T08:55:47.160Z,100733.71
2023-04-16T08:58:21.524Z,100732.39
2023-04-16T09:00:50.208Z,100735.42
2023-04-16T09:03:21.657Z,100736.60
2023-04-16T09:05:49.807Z,100742.83
2023-04-16T09:08:18.426Z,100739.61
2023-04-16T09:10:46.982Z,100735.34
2023-04-16T09:13:17.023Z,100737.56
2023-04-16T09:15:45.519Z,100741.80
2023-04-16T09:18:16.378Z,100745.58
2023-04-16T09:20:44.596Z,100745.64
2023-04-16T09:23:15.890Z,100744.21
2023-04-16T09:25:44.533Z,100734.86
2023-04-16T09:28:12.704Z,100740.55
2023-04-16T09:30:41.257Z,100752.08
2023-04-16T09:33:17.601Z,100755.32
2023-04-16T09:35:50.971Z,100761.13
2023-04-16T09:38:20.223Z,100762.84
2023-04-16T09:40:48.682Z,100767.81
2023-04-16T09:43:18.683Z,100768.13
2023-04-16T09:45:54.403Z,100765.62
2023-04-16T09:48:30.437Z,100766.33
2023-04-16T09:51:00.325Z,100767.81
2023-04-16T09:53:30.793Z,100771.27
2023-04-16T09:56:01.570Z,100762.91
2023-04-16T09:58:29.775Z,100764.67
2023-04-16T10:01:12.308Z,100767.73
2023-04-16T10:03:41.025Z,100770.23
2023-04-16T10:06:18.865Z,100771.98
2023-04-16T10:08:51.483Z,100774.77
2023-04-16T10:11:21.124Z,100776.36
2023-04-16T10:13:49.532Z,100778.43
2023-04-16T10:16:18.292Z,100774.58
2023-04-16T10:18:47.673Z,100778.97
2023-04-16T10:21:16.449Z,100774.06
2023-04-16T10:23:44.592Z,100780.95
2023-04-16T10:26:14.050Z,100781.31
2023-04-16T10:28:45.776Z,100780.79
2023-04-16T10:31:14.009Z,100782.56
2023-04-16T10:33:45.166Z,100792.60
2023-04-16T10:36:26.570Z,100787.64
2023-04-16T10:38:59.520Z,100793.17
2023-04-16T10:41:28.013Z,100790.52
2023-04-16T10:44:10.005Z,100793.16
2023-04-16T10:46:43.691Z,100794.80
2023-04-16T10:49:20.519Z,100794.31
2023-04-16T10:52:07.579Z,100795.89
2023-04-16T10:54:37.050Z,100796.70
2023-04-16T10:57:29.104Z,100800.70
2023-04-16T10:59:57.173Z,100799.39
2023-04-16T11:02:29.246Z,100799.61
2023-04-16T11:04:58.509Z,100801.04
2023-04-16T11:07:34.733Z,100799.84
2023-04-16T11:10:07.008Z,100803.02
2023-04-16T11:12:41.560Z,100804.06
2023-04-16T11:15:11.837Z,100809.18
2023-04-16T11:17:45.401Z,100811.65
2023-04-16T11:20:24.445Z,100813.30
2023-04-16T11:22:55.076Z,100815.77
2023-04-16T11:25:25.643Z,100810.13
2023-04-16T11:27:54.899Z,100811.76
2023-04-16T11:30:34.654Z,100812.73
2023-04-16T11:33:07.771Z,100812.55
2023-04-16T11:35:36.108Z,100815.41
2023-04-16T11:38:06.110Z,100811.94
2023-04-16T11:40:34.618Z,100811.02
2023-04-16T11:43:05.000Z,100814.97
2023-04-16T11:45:33.166Z,100817.95
2023-04-16T11:48:01.224Z,100816.21
2023-04-16T11:50:29.530Z,100814.99
2023-04-16T11:53:04.872Z,100812.59
2023-04-16T11:55:44.793Z,100813.84
2023-04-16T11:58:13.777Z,100814.36
2023-04-16T12:00:43.274Z,100811.83
2023-04-16T12:03:12.104Z,100815.36
2023-04-16T12:05:43.819Z,100811.77
2023-04-16T12:08:12.836Z,100817.11
2023-04-16T12:10:54.515Z,100815.40
2023-04-16T12:13:22.953Z,100813.27
2023-04-16T12:15:53.657Z,100815.94
2023-04-16T12:18:24.689Z,100811.27
2023-04-16T12:20:53.113Z,100816.33
2023-04-16T12:23:32.049Z,100815.46
2023-04-16T12:26:10.577Z,100810.27
2023-04-16T12:28:40.376Z,100812.23
2023-04-16T12:31:08.649Z,100809.98
2023-04-16T12:33:36.575Z,100806.09
2023-04-16T12:36:18.825Z,100805.07
2023-04-16T12:38:46.957Z,100802.42
2023-04-16T12:41:14.861Z,100797.44
2023-04-16T12:43:44.411Z,100800.81
2023-04-16T12:46:12.446Z,100798.44
2023-04-16T12:48:42.557Z,100795.57
2023-04-16T12:51:10.617Z,100794.85
2023-04-16T12:53:39.326Z,100780.23
2023-04-16T12:56:07.499Z,100785.23
2023-04-16T12:58:35.732Z,100784.33
2023-04-16T13:01:04.271Z,100786.10
2023-04-16T13:03:32.442Z,100787.75
2023-04-16T13:06:02.408Z,100786.20
2023-04-16T13:08:31.072Z,100787.39
2023-04-16T13:10:59.258Z,100786.31
2023-04-16T13:13:28.396Z,100774.61
2023-04-16T13:15:56.574Z,100787.77
2023-04-16T13:18:26.852Z,100785.66
2023-04-16T13:20:55.052Z,100787.34
2023-04-16T13:23:23.620Z,100785.38
2023-04-16T13:25:51.625Z,100785.91
2023-04-16T13:28:20.102Z,100786.45
2023-04-16T13:30:48.242Z,100791.04
2023-04-16T13:33:16.512Z,100791.51
2023-04-16T13:35:44.723Z,100792.36
2023-04-16T13:38:12.789Z,100798.61
2023-04-16T13:40:41.190Z,100798.66
2023-04-16T13:43:09.481Z,100742.83
2023-04-16T13:45:38.299Z,100798.70
2023-04-16T13:48:06.237Z,100799.30
2023-04-16T13:50:35.470Z,100799.91
2023-04-16T13:53:03.567Z,100803.52
2023-04-16T13:55:32.242Z,100801.13
2023-04-16T13:58:00.525Z,100802.79
2023-04-16T14:00:28.645Z,100802.69
2023-04-16T14:02:56.882Z,100801.30
2023-04-16T14:05:27.149Z,100794.46
2023-04-16T14:07:55.757Z,100800.31
2023-04-16T14:10:24.333Z,100799.83
2023-04-16T14:12:52.500Z,100796.52
2023-04-16T14:15:21.167Z,100795.12
2023-04-16T14:17:49.623Z,100796.25
2023-04-16T14:20:17.820Z,100796.79
2023-04-16T14:22:46.837Z,100800.36
2023-04-16T14:25:14.827Z,100804.30
2023-04-16T14:27:42.902Z,100803.34
2023-04-16T14:30:11.232Z,100799.29
2023-04-16T14:32:39.204Z,100796.92
2023-04-16T14:35:08.670Z,100798.84
2023-04-16T14:37:36.901Z,100794.60
2023-04-16T14:40:08.698Z,100801.06
2023-04-16T14:42:37.548Z,100801.81
2023-04-16T14:45:06.912Z,100804.58
2023-04-16T14:47:36.402Z,100808.25
2023-04-16T14:50:05.641Z,100807.45
2023-04-16T14:52:33.862Z,100804.70
2023-04-16T14:55:01.798Z,100792.41
2023-04-16T14:57:30.209Z,100799.54
2023-04-16T14:59:58.169Z,100806.55
2023-04-16T15:02:26.358Z,100806.38
2023-04-16T15:04:54.799Z,100808.87
2023-04-16T15:07:22.922Z,100807.59
2023-04-16T15:09:51.134Z,100810.98
2023-04-16T15:12:19.343Z,100812.11
2023-04-16T15:14:47.923Z,100814.52
2023-04-16T15:17:16.182Z,100815.30
2023-04-16T15:19:44.665Z,100812.14
2023-04-16T15:22:12.928Z,100815.40
2023-04-16T15:24:41.281Z,100814.79
2023-04-16T15:27:11.622Z,100815.42
2023-04-16T15:29:40.458Z,100813.27
2023-04-16T15:32:08.395Z,100819.80
2023-04-16T15:34:36.599Z,100816.59
2023-04-16T15:37:04.956Z,100816.95
2023-04-16T15:39:32.916Z,100819.67
2023-04-16T15:42:03.499Z,100815.47
2023-04-16T15:44:33.848Z,100819.23
2023-04-16T15:47:04.342Z,100817.24
2023-04-16T15:49:36.310Z,100823.13
2023-04-16T15:52:07.292Z,100821.60
2023-04-16T15:54:35.711Z,100828.40
2023-04-16T15:57:03.897Z,100827.08
2023-04-16T15:59:32.788Z,100828.19
2023-04-16T16:02:01.305Z,100829.98
2023-04-16T16:04:29.947Z,100832.86
2023-04-16T16:06:58.071Z,100832.61
2023-04-16T16:09:26.908Z,100823.55
2023-04-16T16:11:57.383Z,100837.67
2023-04-16T16:14:26.940Z,100842.16
2023-04-16T16:16:54.958Z,100843.44
2023-04-16T16:19:23.148Z,100848.84
2023-04-16T16:21:51.445Z,100847.23
2023-04-16T16:24:19.351Z,100854.48
2023-04-16T16:26:47.693Z,100858.17
2023-04-16T16:29:15.644Z,100858.88
2023-04-16T16:31:43.744Z,100860.17
2023-04-16T16:34:19.971Z,100819.16
2023-04-16T16:36:49.486Z,100834.19
2023-04-16T16:39:17.665Z,100868.19
2023-04-16T16:41:45.760Z,100866.55
2023-04-16T16:44:14.012Z,100872.25
2023-04-16T16:46:42.290Z,100877.08
2023-04-16T16:49:11.649Z,100878.20
2023-04-16T16:51:40.291Z,100879.48
2023-04-16T16:54:08.574Z,100881.55
2023-04-16T16:56:36.871Z,100880.75
2023-04-16T16:59:11.072Z,100884.14
2023-04-16T17:01:39.263Z,100892.09
2023-04-16T17:04:08.263Z,100891.75
2023-04-16T17:06:36.567Z,100893.67
2023-04-16T17:09:04.958Z,100898.66
2023-04-16T17:11:33.244Z,100899.20
2023-04-16T17:14:01.438Z,100903.33
2023-04-16T17:16:32.668Z,100904.73
2023-04-16T17:19:01.385Z,100905.36
2023-04-16T17:21:32.313Z,100899.33
2023-04-16T17:24:00.575Z,100912.76
2023-04-16T17:26:28.626Z,100917.42
2023-04-16T17:28:58.083Z,100919.00
2023-04-16T17:31:27.689Z,100919.64
2023-04-16T17:33:55.794Z,100923.71
2023-04-16T17:36:25.696Z,100917.64
2023-04-16T17:38:53.900Z,100928.95
2023-04-16T17:41:21.773Z,100934.73
2023-04-16T17:43:50.836Z,100932.64
2023-04-16T17:46:18.886Z,100937.16
2023-04-16T17:48:49.010Z,100942.06
2023-04-16T17:51:17.180Z,100934.27
2023-04-16T17:53:45.452Z,100949.23
2023-04-16T17:56:14.283Z,100953.44
2023-04-16T17:58:42.649Z,100954.97
2023-04-16T18:01:11.466Z,100957.23
2023-04-16T18:03:40.233Z,100958.38
2023-04-16T18:06:08.504Z,100959.05
2023-04-16T18:08:37.109Z,100962.46
2023-04-16T18:11:08.876Z,100961.42
2023-04-16T18:13:37.299Z,100963.82
2023-04-16T18:16:05.357Z,100967.79
2023-04-16T18:18:33.334Z,100968.33
2023-04-16T18:21:01.631Z,100977.05
2023-04-16T18:23:29.700Z,100978.77
2023-04-16T18:25:58.815Z,100984.48
2023-04-16T18:28:27.423Z,100971.99
2023-04-16T18:30:58.738Z,100982.70
2023-04-16T18:33:50.015Z,100983.90
2023-04-16T18:36:15.588Z,100984.13
2023-04-16T18:38:59.325Z,100989.05
2023-04-16T18:41:29.565Z,100987.79
2023-04-16T18:43:57.699Z,100986.73
2023-04-16T18:46:26.860Z,100986.38
2023-04-16T18:48:55.357Z,100985.11
2023-04-16T18:51:23.595Z,100995.33
2023-04-16T18:53:51.709Z,100987.23
2023-04-16T18:56:20.023Z,100991.86
2023-04-16T18:58:48.056Z,100990.67
2023-04-16T19:01:16.737Z,100987.26
2023-04-16T19:03:45.805Z,100985.67
2023-04-16T19:06:13.714Z,100985.11
2023-04-16T19:08:42.519Z,100986.23
2023-04-16T19:11:13.960Z,100989.52
2023-04-16T19:13:44.856Z,100991.20
2023-04-16T19:16:13.648Z,100992.30
2023-04-16T19:18:41.758Z,100988.38
2023-04-16T19:21:11.150Z,100993.19
2023-04-16T19:23:39.383Z,100991.38
2023-04-16T19:26:07.613Z,100991.81
2023-04-16T19:28:35.555Z,100991.58
2023-04-16T19:31:03.833Z,100990.66
2023-04-16T19:33:32.207Z,100974.86
2023-04-16T19:36:01.848Z,100989.90
2023-04-16T19:38:39.812Z,100989.81
2023-04-16T19:41:07.697Z,100987.11
2023-04-16T19:43:38.268Z,100989.79
2023-04-16T19:46:06.570Z,100990.91
2023-04-16T19:48:34.688Z,100992.59
2023-04-16T19:51:06.590Z,100990.63
2023-04-16T19:53:34.894Z,100991.00
2023-04-16T19:56:05.924Z,100991.48
2023-04-16T19:58:34.158Z,100990.00
2023-04-16T20:01:02.388Z,100991.66
2023-04-16T20:03:30.614Z,100988.63
2023-04-16T20:05:58.779Z,100991.13
2023-04-16T20:08:26.677Z,100978.13
2023-04-16T20:10:54.785Z,100990.27
2023-04-16T20:13:24.015Z,100991.80
2023-04-16T20:15:55.350Z,100998.80
2023-04-16T20:18:23.544Z,100998.35
2023-04-16T20:20:51.904Z,100995.42
2023-04-16T20:23:19.822Z,100994.44
2023-04-16T20:25:48.429Z,100994.58
2023-04-16T20:28:18.342Z,100997.81
2023-04-16T20:30:46.709Z,100993.52
2023-04-16T20:33:14.960Z,100993.95
2023-04-16T20:35:43.514Z,100998.41
2023-04-16T20:38:11.492Z,101002.29
2023-04-16T20:40:39.859Z,101006.16
2023-04-16T20:43:10.522Z,101005.09
2023-04-16T20:45:41.769Z,101005.78
2023-04-16T20:48:10.026Z,101003.81
2023-04-16T20:50:38.346Z,101001.13
2023-04-16T20:53:06.502Z,100996.98
2023-04-16T20:55:34.796Z,101000.42
2023-04-16T20:58:03.281Z,100997.56
2023-04-16T21:00:31.457Z,100996.32
2023-04-16T21:03:00.094Z,100999.65
2023-04-16T21:05:33.626Z,100998.43
2023-04-16T21:08:02.295Z,100999.81
2023-04-16T21:10:30.524Z,100992.94
2023-04-16T21:12:58.648Z,100990.48
2023-04-16T21:15:26.895Z,100990.95
2023-04-16T21:17:54.897Z,100989.52
2023-04-16T21:20:23.176Z,100990.20
2023-04-16T21:22:55.264Z,100989.90
2023-04-16T21:25:24.412Z,100994.11
2023-04-16T21:27:52.780Z,100998.11
2023-04-16T21:30:22.968Z,100999.11
2023-04-16T21:32:51.169Z,100993.71
2023-04-16T21:35:19.526Z,100993.73
2023-04-16T21:37:47.454Z,100994.22
2023-04-16T21:40:15.700Z,100990.48
2023-04-16T21:42:44.735Z,100994.68
2023-04-16T21:45:14.583Z,100995.38
2023-04-16T21:47:42.652Z,100989.98
2023-04-16T21:50:11.269Z,100990.52
2023-04-16T21:52:40.595Z,100992.98
2023-04-16T21:55:09.846Z,100995.09
2023-04-16T21:57:38.059Z,100991.09
2023-04-16T22:00:14.445Z,101000.05
2023-04-16T22:02:43.136Z,100999.62
2023-04-16T22:05:11.811Z,101001.45
2023-04-16T22:07:40.079Z,100998.81
2023-04-16T22:10:09.240Z,100998.98
2023-04-16T22:12:40.163Z,100997.57
2023-04-16T22:15:09.308Z,100995.77
2023-04-16T22:17:37.713Z,100995.55
2023-04-16T22:20:07.816Z,100993.71
2023-04-16T22:22:36.408Z,100991.86
2023-04-16T22:25:04.890Z,100993.02
2023-04-16T22:27:33.707Z,100990.69
2023-04-16T22:30:01.993Z,100989.53
2023-04-16T22:32:33.621Z,100995.96
2023-04-16T22:35:02.060Z,100983.00
2023-04-16T22:37:30.483Z,100998.17
2023-04-16T22:39:58.547Z,100997.84
2023-04-16T22:42:27.192Z,101001.03
2023-04-16T22:44:55.612Z,101002.36
2023-04-16T22:47:23.808Z,100998.05
2023-04-16T22:49:52.738Z,100997.08
2023-04-16T22:52:20.919Z,101000.17
2023-04-16T22:54:48.954Z,101000.27
2023-04-16T22:57:21.087Z,101000.14
2023-04-16T22:59:49.276Z,100991.45
2023-04-16T23:02:17.604Z,101000.20
2023-04-16T23:04:46.494Z,101004.38
2023-04-16T23:07:16.427Z,101000.52
2023-04-16T23:09:46.794Z,100996.04
2023-04-16T23:12:14.628Z,100989.46
2023-04-16T23:14:46.844Z,100989.54
2023-04-16T23:17:14.803Z,100989.80
2023-04-16T23:19:42.690Z,100991.44
2023-04-16T23:22:10.812Z,100989.45
2023-04-16T23:24:39.032Z,100991.10
2023-04-16T23:27:07.023Z,100990.33
2023-04-16T23:29:35.028Z,100992.70
2023-04-16T23:32:03.269Z,100991.02
2023-04-16T23:34:31.316Z,100990.88
2023-04-16T23:36:59.289Z,100978.42
2023-04-16T23:39:27.550Z,100982.89
2023-04-16T23:41:55.559Z,100984.90
2023-04-16T23:44:23.621Z,100983.61
2023-04-16T23:46:51.653Z,100985.30
2023-04-16T23:49:19.584Z,100983.98
2023-04-16T23:51:47.598Z,100983.01
2023-04-16T23:54:15.693Z,100982.13
2023-04-16T23:56:43.730Z,100980.08
2023-04-16T23:59:11.875Z,100980.15
